Time,TemperatureF,DewpointF,PressureIn,WindDirection,WindDirectionDegrees,WindSpeedMPH,WindSpeedGustMPH,Humidity,HourlyPrecipIn,Conditions,Clouds,dailyrainin,SoftwareType,DateUTC
2013-02-04 00:00:00,24.7,22.2,29.79,North,359,0.0,0.0,90,0.00,,---,0.00,VWS V14.01,2013-02-04 05:00:00,
2013-02-04 00:01:00,24.5,22.2,29.79,North,359,0.0,0.0,91,0.00,,---,0.00,VWS V14.01,2013-02-04 05:01:00,
2013-02-04 00:03:00,24.3,21.9,29.79,North,359,0.0,0.0,90,0.00,,---,0.00,VWS V14.01,2013-02-04 05:03:00,
2013-02-04 00:08:00,24.6,22.9,29.78,North,359,0.0,0.0,93,0.00,,---,0.00,VWS V14.01,2013-02-04 05:08:00,
2013-02-04 00:13:00,25.0,23.4,29.79,North,359,0.0,0.0,94,0.00,,---,0.00,VWS V14.01,2013-02-04 05:13:00,
2013-02-04 00:18:00,25.0,23.6,29.79,North,359,0.0,0.0,94,0.00,,---,0.00,VWS V14.01,2013-02-04 05:18:00,
2013-02-04 00:23:00,24.7,23.2,29.78,North,359,0.0,0.0,94,0.00,,---,0.00,VWS V14.01,2013-02-04 05:23:00,
2013-02-04 00:28:00,25.2,23.6,29.78,North,359,0.0,5.2,94,0.00,,---,0.00,VWS V14.01,2013-02-04 05:28:00,
2013-02-04 00:33:00,25.1,23.8,29.78,North,6,0.0,0.0,94,0.00,,---,0.00,VWS V14.01,2013-02-04 05:33:00,
2013-02-04 00:38:00,25.2,23.9,29.79,North,6,0.0,0.0,95,0.00,,---,0.00,VWS V14.01,2013-02-04 05:38:00,
2013-02-04 00:43:00,24.6,23.4,29.79,North,359,3.7,6.2,95,43.53,,---,0.00,VWS V14.01,2013-02-04 05:43:00,
2013-02-04 00:48:00,24.0,22.8,29.79,North,359,0.7,8.9,95,0.00,,---,0.00,VWS V14.01,2013-02-04 05:48:00,
2013-02-04 00:53:00,25.2,24.0,29.79,WNW,285,4.5,6.0,95,0.00,,---,0.00,VWS V14.01,2013-02-04 05:53:00,
2013-02-04 00:58:00,25.8,24.3,29.79,NNE,18,0.0,0.0,94,0.00,,---,0.00,VWS V14.01,2013-02-04 05:58:00,
2013-02-04 01:03:00,26.1,24.2,29.79,WNW,284,0.2,8.8,92,0.00,,---,0.00,VWS V14.01,2013-02-04 06:03:00,
2013-02-04 01:08:00,26.8,24.1,29.79,NW,319,0.0,4.3,89,0.00,,---,0.00,VWS V14.01,2013-02-04 06:08:00,
2013-02-04 01:13:00,26.3,22.8,29.79,NW,319,0.0,0.0,86,0.00,,---,0.00,VWS V14.01,2013-02-04 06:13:00,
2013-02-04 01:18:00,26.2,22.1,29.79,North,359,0.0,0.0,84,0.00,,---,0.00,VWS V14.01,2013-02-04 06:18:00,
2013-02-04 01:23:00,26.3,21.4,29.79,North,359,0.0,0.0,82,0.00,,---,0.00,VWS V14.01,2013-02-04 06:23:00,
2013-02-04 01:28:00,26.5,20.7,29.79,North,359,0.0,0.0,78,0.00,,---,0.00,VWS V14.01,2013-02-04 06:28:00,
2013-02-04 01:33:00,26.6,18.9,29.79,North,356,10.6,15.8,72,66.87,,---,0.00,VWS V14.01,2013-02-04 06:33:00,
2013-02-04 01:38:00,26.0,17.3,29.79,North,356,0.0,0.0,69,0.00,,---,0.00,VWS V14.01,2013-02-04 06:38:00,
2013-02-04 01:43:00,26.6,17.6,29.80,North,356,0.0,0.0,68,0.00,,---,0.00,VWS V14.01,2013-02-04 06:43:00,
2013-02-04 01:48:00,26.3,16.5,29.80,North,356,0.0,0.0,66,0.00,,---,0.00,VWS V14.01,2013-02-04 06:48:00,
2013-02-04 01:53:00,26.4,16.7,29.80,North,356,0.0,0.0,66,0.00,,---,0.00,VWS V14.01,2013-02-04 06:53:00,
2013-02-04 01:58:00,26.2,16.8,29.80,North,359,0.0,0.4,67,0.00,,---,0.00,VWS V14.01,2013-02-04 06:58:00,
2013-02-04 02:02:00,25.9,16.6,29.81,North,359,0.0,0.0,67,0.00,,---,0.00,VWS V14.01,2013-02-04 07:02:00,
2013-02-04 02:07:00,25.2,15.9,29.80,North,359,0.0,0.0,67,0.00,,---,0.00,VWS V14.01,2013-02-04 07:07:00,
2013-02-04 02:12:00,26.1,16.8,29.80,WNW,298,0.0,0.0,68,0.00,,---,0.00,VWS V14.01,2013-02-04 07:12:00,
2013-02-04 02:17:00,25.6,16.4,29.81,West,271,0.0,0.0,68,0.00,,---,0.00,VWS V14.01,2013-02-04 07:17:00,
2013-02-04 02:22:00,26.0,16.9,29.81,West,273,7.5,12.1,68,0.00,,---,0.00,VWS V14.01,2013-02-04 07:22:00,
2013-02-04 02:27:00,25.4,16.4,29.81,NW,318,0.0,0.0,68,0.00,,---,0.00,VWS V14.01,2013-02-04 07:27:00,
2013-02-04 02:32:00,24.7,15.6,29.81,North,359,0.0,0.0,68,0.00,,---,0.00,VWS V14.01,2013-02-04 07:32:00,
2013-02-04 02:37:00,25.2,16.0,29.82,North,359,0.0,0.0,68,0.00,,---,0.00,VWS V14.01,2013-02-04 07:37:00,
2013-02-04 02:42:00,24.7,15.2,29.81,North,359,0.0,0.0,67,0.00,,---,0.00,VWS V14.01,2013-02-04 07:42:00,
2013-02-04 02:47:00,24.9,15.4,29.82,North,359,0.0,0.0,67,0.00,,---,0.00,VWS V14.01,2013-02-04 07:47:00,
2013-02-04 02:52:00,24.6,14.8,29.82,North,359,0.0,16.2,66,0.00,,---,0.00,VWS V14.01,2013-02-04 07:52:00,
2013-02-04 02:57:00,24.4,14.6,29.82,North,359,0.0,16.2,66,68.47,,---,0.00,VWS V14.01,2013-02-04 07:57:00,
2013-02-04 03:02:00,24.2,14.3,29.82,NNW,343,6.6,16.2,65,0.00,,---,0.00,VWS V14.01,2013-02-04 08:02:00,
2013-02-04 03:07:00,24.4,14.2,29.82,NW,308,13.1,16.6,65,0.00,,---,0.00,VWS V14.01,2013-02-04 08:07:00,
2013-02-04 03:12:00,24.2,13.8,29.82,NNW,339,8.4,16.9,64,0.00,,---,0.00,VWS V14.01,2013-02-04 08:12:00,
2013-02-04 03:17:00,24.0,13.5,29.82,NW,325,13.0,16.9,64,0.00,,---,0.00,VWS V14.01,2013-02-04 08:17:00,
2013-02-04 03:22:00,24.4,13.7,29.82,North,350,0.0,0.0,63,68.95,,---,0.00,VWS V14.01,2013-02-04 08:22:00,
2013-02-04 03:27:00,23.9,13.2,29.82,NW,314,0.0,0.0,63,0.00,,---,0.00,VWS V14.01,2013-02-04 08:27:00,
2013-02-04 03:32:00,23.9,13.1,29.82,NW,314,0.0,0.0,63,0.00,,---,0.00,VWS V14.01,2013-02-04 08:32:00,
2013-02-04 03:37:00,23.7,12.8,29.83,NW,314,0.0,0.0,63,0.00,,---,0.00,VWS V14.01,2013-02-04 08:37:00,
2013-02-04 03:42:00,23.6,12.5,29.83,NW,314,0.0,0.0,62,0.00,,---,0.00,VWS V14.01,2013-02-04 08:42:00,
2013-02-04 03:47:00,23.8,12.6,29.83,NW,314,0.0,0.0,62,0.00,,---,0.00,VWS V14.01,2013-02-04 08:47:00,
2013-02-04 03:52:00,23.3,12.1,29.83,North,359,0.0,0.0,62,0.00,,---,0.00,VWS V14.01,2013-02-04 08:52:00,
2013-02-04 03:57:00,23.2,11.8,29.83,North,359,0.0,0.0,61,0.00,,---,0.00,VWS V14.01,2013-02-04 08:57:00,
2013-02-04 04:02:00,23.5,11.9,29.84,North,359,0.0,0.0,61,0.00,,---,0.00,VWS V14.01,2013-02-04 09:02:00,
2013-02-04 04:07:00,23.0,11.4,29.84,NW,308,10.9,17.8,60,0.00,,---,0.00,VWS V14.01,2013-02-04 09:07:00,
2013-02-04 04:12:00,22.9,11.2,29.84,NW,322,14.1,21.5,60,0.00,,---,0.00,VWS V14.01,2013-02-04 09:12:00,
2013-02-04 04:17:00,23.4,11.8,29.84,North,359,0.0,0.0,60,0.00,,---,0.00,VWS V14.01,2013-02-04 09:17:00,
2013-02-04 04:22:00,23.1,11.4,29.85,NW,322,8.3,14.2,60,0.00,,---,0.00,VWS V14.01,2013-02-04 09:22:00,
2013-02-04 04:27:00,23.0,11.3,29.85,North,359,0.0,4.6,60,0.00,,---,0.00,VWS V14.01,2013-02-04 09:27:00,
2013-02-04 04:32:00,22.7,10.9,29.85,South,180,1.4,17.1,60,0.00,,---,0.00,VWS V14.01,2013-02-04 09:32:00,
2013-02-04 04:37:00,22.7,10.8,29.85,NNE,15,0.0,13.6,60,0.00,,---,0.00,VWS V14.01,2013-02-04 09:37:00,
2013-02-04 04:42:00,23.0,11.1,29.86,North,359,0.0,0.0,60,0.00,,---,0.00,VWS V14.01,2013-02-04 09:42:00,
2013-02-04 04:47:00,22.8,10.9,29.86,NW,308,0.0,0.0,60,0.00,,---,0.00,VWS V14.01,2013-02-04 09:47:00,
2013-02-04 04:52:00,22.6,10.8,29.86,NW,326,8.0,11.6,60,0.00,,---,0.00,VWS V14.01,2013-02-04 09:52:00,
2013-02-04 04:57:00,22.6,10.9,29.86,NW,311,0.0,12.7,60,0.00,,---,0.00,VWS V14.01,2013-02-04 09:57:00,
2013-02-04 05:02:00,22.8,11.1,29.87,NW,314,5.5,11.2,60,0.00,,---,0.00,VWS V14.01,2013-02-04 10:02:00,
2013-02-04 05:07:00,22.7,11.2,29.87,WNW,298,6.0,12.1,61,0.00,,---,0.00,VWS V14.01,2013-02-04 10:07:00,
2013-02-04 05:12:00,22.7,11.1,29.87,North,359,0.0,0.8,61,0.00,,---,0.00,VWS V14.01,2013-02-04 10:12:00,
2013-02-04 05:17:00,22.4,11.0,29.87,NE,55,0.0,0.0,61,0.00,,---,0.00,VWS V14.01,2013-02-04 10:17:00,
2013-02-04 05:22:00,22.0,10.8,29.87,NE,55,0.0,0.0,61,0.00,,---,0.00,VWS V14.01,2013-02-04 10:22:00,
2013-02-04 05:27:00,21.7,10.5,29.87,North,11,0.0,11.3,61,40.95,,---,0.00,VWS V14.01,2013-02-04 10:27:00,
2013-02-04 05:32:00,21.6,10.4,29.88,NE,48,13.7,17.7,61,0.00,,---,0.00,VWS V14.01,2013-02-04 10:32:00,
2013-02-04 05:37:00,22.3,11.0,29.88,North,3,0.0,0.0,61,0.00,,---,0.00,VWS V14.01,2013-02-04 10:37:00,
2013-02-04 05:42:00,22.6,11.4,29.88,North,3,0.0,0.0,62,0.00,,---,0.00,VWS V14.01,2013-02-04 10:42:00,
2013-02-04 05:47:00,21.8,10.6,29.89,North,0,0.0,0.0,61,0.00,,---,0.00,VWS V14.01,2013-02-04 10:47:00,
2013-02-04 05:52:00,21.7,10.4,29.89,North,357,17.4,17.4,61,0.00,,---,0.00,VWS V14.01,2013-02-04 10:52:00,
2013-02-04 05:57:00,22.0,10.8,29.89,NNW,338,0.4,11.9,62,0.00,,---,0.00,VWS V14.01,2013-02-04 10:57:00,
2013-02-04 06:02:00,21.8,10.6,29.89,NNE,32,13.7,13.7,61,0.00,,---,0.00,VWS V14.01,2013-02-04 11:02:00,
2013-02-04 06:07:00,21.7,10.4,29.89,NNW,336,8.1,14.4,61,0.00,,---,0.00,VWS V14.01,2013-02-04 11:07:00,
2013-02-04 06:12:00,22.2,10.9,29.89,NNW,330,11.4,15.2,61,0.00,,---,0.00,VWS V14.01,2013-02-04 11:12:00,
2013-02-04 06:17:00,21.3,9.9,29.89,North,359,0.0,0.0,61,36.48,,---,0.00,VWS V14.01,2013-02-04 11:17:00,
2013-02-04 06:22:00,21.5,10.2,29.90,North,354,0.0,9.6,61,0.00,,---,0.00,VWS V14.01,2013-02-04 11:22:00,
2013-02-04 06:27:00,21.3,10.1,29.90,North,354,0.0,0.0,61,0.00,,---,0.00,VWS V14.01,2013-02-04 11:27:00,
2013-02-04 06:32:00,22.0,10.8,29.90,North,354,0.0,0.0,61,0.00,,---,0.00,VWS V14.01,2013-02-04 11:32:00,
2013-02-04 06:37:00,22.0,10.8,29.90,North,359,0.0,0.0,61,0.00,,---,0.00,VWS V14.01,2013-02-04 11:37:00,
2013-02-04 06:42:00,21.8,10.5,29.90,North,359,0.0,0.0,61,0.00,,---,0.00,VWS V14.01,2013-02-04 11:42:00,
2013-02-04 06:47:00,21.4,10.1,29.90,North,359,0.0,0.0,61,0.00,,---,0.00,VWS V14.01,2013-02-04 11:47:00,
2013-02-04 06:52:00,21.9,10.8,29.91,North,359,0.0,0.0,62,0.00,,---,0.00,VWS V14.01,2013-02-04 11:52:00,
2013-02-04 06:57:00,21.7,10.7,29.90,North,359,0.0,0.0,62,0.00,,---,0.00,VWS V14.01,2013-02-04 11:57:00,
2013-02-04 07:02:00,21.6,10.8,29.90,North,359,0.0,0.0,62,0.00,,---,0.00,VWS V14.01,2013-02-04 12:02:00,
2013-02-04 07:07:00,21.4,10.7,29.90,North,359,0.0,0.0,63,0.00,,---,0.00,VWS V14.01,2013-02-04 12:07:00,
2013-02-04 07:12:00,21.3,10.7,29.91,North,359,0.0,0.0,63,0.00,,---,0.00,VWS V14.01,2013-02-04 12:12:00,
2013-02-04 07:17:00,21.1,10.7,29.91,NNE,25,0.0,0.0,64,43.37,,---,0.00,VWS V14.01,2013-02-04 12:17:00,
2013-02-04 07:22:00,21.0,10.8,29.92,North,359,0.0,0.0,64,0.00,,---,0.00,VWS V14.01,2013-02-04 12:22:00,
2013-02-04 07:27:00,21.0,11.0,29.92,North,359,0.0,0.0,65,0.00,,---,0.00,VWS V14.01,2013-02-04 12:27:00,
2013-02-04 07:32:00,21.4,11.4,29.92,North,359,0.0,0.0,65,0.00,,---,0.00,VWS V14.01,2013-02-04 12:32:00,
2013-02-04 07:37:00,20.9,10.8,29.92,North,359,0.0,0.0,64,0.00,,---,0.00,VWS V14.01,2013-02-04 12:37:00,
2013-02-04 07:42:00,21.4,11.3,29.93,North,359,0.0,0.0,64,0.00,,---,0.00,VWS V14.01,2013-02-04 12:42:00,
2013-02-04 07:47:00,21.7,11.6,29.93,NNW,330,9.6,9.9,64,0.00,,---,0.00,VWS V14.01,2013-02-04 12:47:00,
2013-02-04 07:52:00,21.0,10.9,29.93,NNW,336,0.0,0.0,64,0.00,,---,0.00,VWS V14.01,2013-02-04 12:52:00,
2013-02-04 07:57:00,21.4,11.3,29.93,North,359,0.0,0.0,64,0.00,,---,0.00,VWS V14.01,2013-02-04 12:57:00,
2013-02-04 08:02:00,22.3,12.2,29.94,North,359,0.0,0.0,65,0.00,,---,0.00,VWS V14.01,2013-02-04 13:02:00,
2013-02-04 08:07:00,21.9,11.8,29.93,North,359,0.0,0.0,64,68.47,,---,0.00,VWS V14.01,2013-02-04 13:07:00,
2013-02-04 08:12:00,22.2,12.0,29.93,NW,312,0.0,0.0,64,0.00,,---,0.00,VWS V14.01,2013-02-04 13:12:00,
2013-02-04 08:17:00,22.2,11.9,29.93,North,359,0.0,0.0,64,0.00,,---,0.00,VWS V14.01,2013-02-04 13:17:00,
2013-02-04 08:22:00,22.4,12.0,29.94,North,359,0.0,0.0,64,0.00,,---,0.00,VWS V14.01,2013-02-04 13:22:00,
2013-02-04 08:27:00,22.5,12.1,29.94,North,359,0.0,0.0,64,0.00,,---,0.00,VWS V14.01,2013-02-04 13:27:00,
2013-02-04 08:32:00,22.3,11.3,29.95,ENE,65,16.0,17.3,62,68.79,,---,0.00,VWS V14.01,2013-02-04 13:32:00,
2013-02-04 08:37:00,23.0,12.1,29.95,NW,315,9.7,10.5,63,0.00,,---,0.00,VWS V14.01,2013-02-04 13:37:00,
2013-02-04 08:41:00,22.8,12.0,29.95,SW,226,2.2,4.6,63,0.00,,---,0.00,VWS V14.01,2013-02-04 13:41:00,
2013-02-04 08:46:00,22.8,11.7,29.95,WNW,298,8.1,12.6,62,0.00,,---,0.00,VWS V14.01,2013-02-04 13:46:00,
2013-02-04 08:51:00,22.8,11.8,29.95,NW,304,8.1,9.3,62,0.00,,---,0.00,VWS V14.01,2013-02-04 13:51:00,
2013-02-04 08:56:00,22.7,11.5,29.95,West,277,6.7,12.6,62,71.35,,---,0.00,VWS V14.01,2013-02-04 13:56:00,
2013-02-04 09:01:00,23.1,11.7,29.95,SW,235,7.8,12.6,61,0.00,,---,0.00,VWS V14.01,2013-02-04 14:01:00,
2013-02-04 09:06:00,23.3,11.5,29.95,North,359,0.2,1.1,60,0.00,,---,0.00,VWS V14.01,2013-02-04 14:06:00,
2013-02-04 09:11:00,23.6,12.1,29.95,North,359,0.0,0.0,61,0.00,,---,0.00,VWS V14.01,2013-02-04 14:11:00,
2013-02-04 09:16:00,23.7,12.0,29.95,North,359,0.0,0.0,60,0.00,,---,0.00,VWS V14.01,2013-02-04 14:16:00,
2013-02-04 09:21:00,23.7,11.8,29.95,North,359,0.0,0.0,60,73.75,,---,0.00,VWS V14.01,2013-02-04 14:21:00,
2013-02-04 09:26:00,23.9,11.8,29.94,North,359,0.0,0.0,59,0.00,,---,0.00,VWS V14.01,2013-02-04 14:26:00,
2013-02-04 09:31:00,24.1,11.7,29.94,North,359,2.2,2.2,59,0.00,,---,0.00,VWS V14.01,2013-02-04 14:31:00,
2013-02-04 09:36:00,24.2,12.1,29.94,North,0,0.0,0.0,60,0.00,,---,0.00,VWS V14.01,2013-02-04 14:36:00,
2013-02-04 09:41:00,24.5,11.8,29.94,North,359,0.0,0.0,58,0.00,,---,0.00,VWS V14.01,2013-02-04 14:41:00,
2013-02-04 09:46:00,24.1,11.2,29.94,WNW,294,12.0,15.8,57,75.35,,---,0.00,VWS V14.01,2013-02-04 14:46:00,
2013-02-04 09:51:00,24.5,11.5,29.95,North,359,16.7,19.2,57,0.00,,---,0.00,VWS V14.01,2013-02-04 14:51:00,
2013-02-04 09:56:00,24.3,11.1,29.94,North,359,1.9,1.9,57,0.00,,---,0.00,VWS V14.01,2013-02-04 14:56:00,
2013-02-04 10:01:00,24.2,11.3,29.95,North,359,8.2,8.2,57,0.00,,---,0.00,VWS V14.01,2013-02-04 15:01:00,
2013-02-04 10:06:00,24.5,11.2,29.94,North,352,0.8,17.3,56,0.00,,---,0.00,VWS V14.01,2013-02-04 15:06:00,
2013-02-04 10:11:00,25.0,11.9,29.94,North,359,0.0,0.0,57,0.00,,---,0.00,VWS V14.01,2013-02-04 15:11:00,
2013-02-04 10:16:00,24.8,11.0,29.94,North,359,0.0,0.0,55,0.00,,---,0.00,VWS V14.01,2013-02-04 15:16:00,
2013-02-04 10:21:00,25.8,12.2,29.93,West,262,0.0,21.8,56,0.00,,---,0.00,VWS V14.01,2013-02-04 15:21:00,
2013-02-04 10:26:00,25.1,11.3,29.93,WNW,290,0.0,0.0,55,0.00,,---,0.00,VWS V14.01,2013-02-04 15:26:00,
2013-02-04 10:31:00,25.1,11.2,29.93,North,10,12.9,14.1,55,0.00,,---,0.00,VWS V14.01,2013-02-04 15:31:00,
2013-02-04 10:36:00,25.4,11.8,29.93,WNW,294,0.0,0.0,56,75.99,,---,0.00,VWS V14.01,2013-02-04 15:36:00,
2013-02-04 10:41:00,25.2,11.2,29.93,NNW,330,20.6,20.6,55,0.00,,---,0.00,VWS V14.01,2013-02-04 15:41:00,
2013-02-04 10:46:00,25.1,11.3,29.93,North,359,0.0,0.0,55,0.00,,---,0.00,VWS V14.01,2013-02-04 15:46:00,
2013-02-04 10:51:00,25.3,10.6,29.93,WNW,284,18.0,20.6,53,0.00,,---,0.00,VWS V14.01,2013-02-04 15:51:00,
2013-02-04 10:56:00,25.3,10.6,29.93,SW,222,16.5,17.3,53,0.00,,---,0.00,VWS V14.01,2013-02-04 15:56:00,
2013-02-04 11:01:00,25.9,11.2,29.93,NNE,14,22.0,23.2,53,76.31,,---,0.00,VWS V14.01,2013-02-04 16:01:00,
2013-02-04 11:06:00,25.7,11.6,29.93,North,359,7.5,23.9,55,0.00,,---,0.00,VWS V14.01,2013-02-04 16:06:00,
2013-02-04 11:11:00,26.1,11.5,29.92,North,359,0.0,0.0,54,0.00,,---,0.00,VWS V14.01,2013-02-04 16:11:00,
2013-02-04 11:16:00,25.7,10.4,29.92,North,357,18.4,18.4,52,0.00,,---,0.00,VWS V14.01,2013-02-04 16:16:00,
2013-02-04 11:21:00,26.4,12.0,29.92,North,0,6.5,11.5,54,0.00,,---,0.00,VWS V14.01,2013-02-04 16:21:00,
2013-02-04 11:26:00,26.2,10.6,29.92,North,359,0.0,7.1,51,76.15,,---,0.00,VWS V14.01,2013-02-04 16:26:00,
2013-02-04 11:31:00,26.3,10.9,29.92,North,359,0.0,16.5,52,0.00,,---,0.00,VWS V14.01,2013-02-04 16:31:00,
2013-02-04 11:36:00,26.6,11.1,29.92,North,359,0.0,20.9,51,0.00,,---,0.00,VWS V14.01,2013-02-04 16:36:00,
2013-02-04 11:41:00,26.6,11.4,29.93,North,356,14.3,20.2,52,0.00,,---,0.00,VWS V14.01,2013-02-04 16:41:00,
2013-02-04 11:46:00,26.2,10.6,29.92,North,359,14.4,19.9,51,0.00,,---,0.00,VWS V14.01,2013-02-04 16:46:00,
2013-02-04 11:51:00,26.2,10.3,29.92,North,359,12.1,17.4,50,75.35,,---,0.00,VWS V14.01,2013-02-04 16:51:00,
2013-02-04 11:56:00,26.5,10.1,29.92,North,359,0.7,25.5,49,0.00,,---,0.00,VWS V14.01,2013-02-04 16:56:00,
2013-02-04 12:01:00,26.6,10.1,29.92,NW,314,12.7,19.0,49,0.00,,---,0.00,VWS V14.01,2013-02-04 17:01:00,
2013-02-04 12:06:00,27.0,10.8,29.92,North,359,3.6,14.8,50,0.00,,---,0.00,VWS V14.01,2013-02-04 17:06:00,
2013-02-04 12:11:00,27.6,11.4,29.91,North,359,0.3,10.7,50,0.00,,---,0.00,VWS V14.01,2013-02-04 17:11:00,
2013-02-04 12:16:00,27.2,10.9,29.92,NE,41,18.6,19.1,50,74.55,,---,0.00,VWS V14.01,2013-02-04 17:16:00,
2013-02-04 12:21:00,27.5,10.7,29.91,North,359,9.1,17.1,49,0.00,,---,0.00,VWS V14.01,2013-02-04 17:21:00,
2013-02-04 12:26:00,26.5,9.2,29.91,North,359,0.8,18.6,47,73.91,,---,0.00,VWS V14.01,2013-02-04 17:26:00,
2013-02-04 12:31:00,26.8,9.9,29.90,NW,315,6.2,17.2,48,0.00,,---,0.00,VWS V14.01,2013-02-04 17:31:00,
2013-02-04 12:36:00,27.4,10.8,29.90,North,359,3.2,16.6,49,0.00,,---,0.00,VWS V14.01,2013-02-04 17:36:00,
2013-02-04 12:41:00,27.3,9.8,29.89,North,352,13.6,17.5,47,0.00,,---,0.00,VWS V14.01,2013-02-04 17:41:00,
2013-02-04 12:46:00,27.3,10.5,29.89,WNW,287,7.0,15.9,49,0.00,,---,0.00,VWS V14.01,2013-02-04 17:46:00,
2013-02-04 12:51:00,26.8,10.0,29.89,NW,305,7.9,12.4,49,73.27,,---,0.00,VWS V14.01,2013-02-04 17:51:00,
2013-02-04 12:56:00,27.3,10.6,29.90,NW,305,8.6,10.1,49,0.00,,---,0.00,VWS V14.01,2013-02-04 17:56:00,
2013-02-04 13:01:00,27.0,9.9,29.90,NW,323,9.3,13.7,48,0.00,,---,0.00,VWS V14.01,2013-02-04 18:01:00,
2013-02-04 13:06:00,26.5,9.5,29.90,WNW,292,13.2,19.6,48,0.00,,---,0.00,VWS V14.01,2013-02-04 18:06:00,
2013-02-04 13:11:00,27.6,10.9,29.89,North,359,4.0,13.7,49,0.00,,---,0.00,VWS V14.01,2013-02-04 18:11:00,
2013-02-04 13:16:00,27.8,11.4,29.89,North,353,11.1,11.1,50,72.15,,---,0.00,VWS V14.01,2013-02-04 18:16:00,
2013-02-04 13:21:00,27.0,10.0,29.89,ENE,75,0.0,14.4,48,0.00,,---,0.00,VWS V14.01,2013-02-04 18:21:00,
2013-02-04 13:26:00,26.8,10.2,29.89,NW,304,5.5,15.2,49,0.00,,---,0.00,VWS V14.01,2013-02-04 18:26:00,
2013-02-04 13:31:00,27.4,9.9,29.89,North,359,0.0,15.8,47,0.00,,---,0.00,VWS V14.01,2013-02-04 18:31:00,
2013-02-04 13:36:00,27.4,10.2,29.89,WNW,284,8.6,14.9,48,0.00,,---,0.00,VWS V14.01,2013-02-04 18:36:00,
2013-02-04 13:41:00,27.5,10.0,29.90,WNW,291,17.4,17.6,47,0.00,,---,0.00,VWS V14.01,2013-02-04 18:41:00,
2013-02-04 13:46:00,27.7,10.4,29.89,West,277,8.0,16.7,48,0.00,,---,0.00,VWS V14.01,2013-02-04 18:46:00,
2013-02-04 13:51:00,26.8,9.6,29.89,NW,321,8.6,20.5,48,0.00,,---,0.00,VWS V14.01,2013-02-04 18:51:00,
2013-02-04 13:56:00,27.1,9.4,29.89,WNW,285,19.3,19.3,47,0.00,,---,0.00,VWS V14.01,2013-02-04 18:56:00,
2013-02-04 14:01:00,27.4,10.2,29.89,NW,315,18.0,19.6,48,0.00,,---,0.00,VWS V14.01,2013-02-04 19:01:00,
2013-02-04 14:06:00,27.4,10.0,29.88,ENE,63,11.1,18.0,47,0.00,,---,0.00,VWS V14.01,2013-02-04 19:06:00,
2013-02-04 14:11:00,28.4,11.2,29.89,ENE,77,7.8,12.6,48,0.00,,---,0.00,VWS V14.01,2013-02-04 19:11:00,
2013-02-04 14:16:00,28.0,10.1,29.89,NNW,333,4.0,12.9,46,0.00,,---,0.00,VWS V14.01,2013-02-04 19:16:00,
2013-02-04 14:21:00,27.6,9.1,29.88,West,270,10.2,16.7,45,0.00,,---,0.00,VWS V14.01,2013-02-04 19:21:00,
2013-02-04 14:26:00,27.8,10.5,29.88,WNW,297,14.0,14.0,48,0.00,,---,0.00,VWS V14.01,2013-02-04 19:26:00,
2013-02-04 14:31:00,27.8,10.1,29.88,WNW,290,8.8,19.9,47,0.00,,---,0.00,VWS V14.01,2013-02-04 19:31:00,
2013-02-04 14:36:00,27.7,10.0,29.88,NW,307,12.8,19.2,47,0.00,,---,0.00,VWS V14.01,2013-02-04 19:36:00,
2013-02-04 14:41:00,27.8,10.2,29.89,NNE,15,7.5,16.0,47,0.00,,---,0.00,VWS V14.01,2013-02-04 19:41:00,
2013-02-04 14:46:00,28.0,10.2,29.88,NW,305,12.5,12.5,47,0.00,,---,0.00,VWS V14.01,2013-02-04 19:46:00,
2013-02-04 14:51:00,27.9,9.9,29.88,NW,323,13.0,19.6,46,0.00,,---,0.00,VWS V14.01,2013-02-04 19:51:00,
2013-02-04 14:56:00,28.3,10.4,29.88,NE,39,7.8,14.4,46,0.00,,---,0.00,VWS V14.01,2013-02-04 19:56:00,
2013-02-04 15:01:00,28.5,10.9,29.89,North,359,3.5,7.9,47,0.00,,---,0.00,VWS V14.01,2013-02-04 20:01:00,
2013-02-04 15:06:00,28.2,10.5,29.88,WNW,302,11.2,15.3,47,0.00,,---,0.00,VWS V14.01,2013-02-04 20:06:00,
2013-02-04 15:11:00,28.1,10.5,29.89,NNE,32,4.9,9.1,47,0.00,,---,0.00,VWS V14.01,2013-02-04 20:11:00,
2013-02-04 15:16:00,28.0,10.4,29.88,North,359,0.4,14.7,47,0.00,,---,0.00,VWS V14.01,2013-02-04 20:16:00,
2013-02-04 15:21:00,28.2,10.4,29.88,North,359,6.6,17.9,47,0.00,,---,0.00,VWS V14.01,2013-02-04 20:21:00,
2013-02-04 15:26:00,28.4,10.9,29.89,North,359,9.3,14.4,47,0.00,,---,0.00,VWS V14.01,2013-02-04 20:26:00,
2013-02-04 15:31:00,28.6,11.0,29.89,North,359,0.0,0.0,47,70.87,,---,0.00,VWS V14.01,2013-02-04 20:31:00,
2013-02-04 15:36:00,28.6,10.6,29.89,North,359,5.3,6.7,46,0.00,,---,0.00,VWS V14.01,2013-02-04 20:36:00,
2013-02-04 15:41:00,28.4,10.6,29.89,WNW,300,7.3,13.9,47,0.00,,---,0.00,VWS V14.01,2013-02-04 20:41:00,
2013-02-04 15:46:00,28.0,10.3,29.89,West,264,4.9,13.1,47,0.00,,---,0.00,VWS V14.01,2013-02-04 20:46:00,
2013-02-04 15:51:00,28.2,10.9,29.89,North,6,5.9,6.0,48,0.00,,---,0.00,VWS V14.01,2013-02-04 20:51:00,
2013-02-04 15:56:00,28.3,10.7,29.89,North,359,0.0,3.8,47,0.00,,---,0.00,VWS V14.01,2013-02-04 20:56:00,
2013-02-04 16:01:00,28.6,11.4,29.89,SSE,150,6.8,10.1,48,0.00,,---,0.00,VWS V14.01,2013-02-04 21:01:00,
2013-02-04 16:06:00,28.1,11.0,29.89,North,359,6.2,6.2,48,0.00,,---,0.00,VWS V14.01,2013-02-04 21:06:00,
2013-02-04 16:11:00,28.1,10.2,29.89,North,359,0.0,0.2,46,0.00,,---,0.00,VWS V14.01,2013-02-04 21:11:00,
2013-02-04 16:16:00,28.4,10.9,29.89,North,359,0.0,0.0,47,0.00,,---,0.00,VWS V14.01,2013-02-04 21:16:00,
2013-02-04 16:20:00,28.4,11.0,29.89,North,359,0.0,0.0,48,0.00,,---,0.00,VWS V14.01,2013-02-04 21:20:00,
2013-02-04 16:25:00,28.1,10.8,29.90,North,359,10.2,10.2,48,0.00,,---,0.00,VWS V14.01,2013-02-04 21:25:00,
2013-02-04 16:30:00,28.0,10.7,29.90,North,359,5.2,5.4,48,0.00,,---,0.00,VWS V14.01,2013-02-04 21:30:00,
2013-02-04 16:35:00,28.1,11.2,29.90,North,359,0.0,0.0,49,0.00,,---,0.00,VWS V14.01,2013-02-04 21:35:00,
2013-02-04 16:40:00,28.1,11.0,29.90,North,359,0.0,0.2,48,0.00,,---,0.00,VWS V14.01,2013-02-04 21:40:00,
2013-02-04 16:45:00,28.4,11.7,29.90,North,359,0.0,0.0,49,0.00,,---,0.00,VWS V14.01,2013-02-04 21:45:00,
2013-02-04 16:50:00,28.2,11.7,29.90,North,359,0.0,0.0,50,0.00,,---,0.00,VWS V14.01,2013-02-04 21:50:00,
2013-02-04 16:55:00,28.2,12.0,29.91,WNW,288,6.5,6.5,50,0.00,,---,0.00,VWS V14.01,2013-02-04 21:55:00,
2013-02-04 17:00:00,28.0,11.8,29.91,NW,315,5.3,5.3,50,0.00,,---,0.00,VWS V14.01,2013-02-04 22:00:00,
2013-02-04 17:05:00,27.8,11.4,29.91,North,359,0.0,2.4,50,0.00,,---,0.00,VWS V14.01,2013-02-04 22:05:00,
2013-02-04 17:07:00,27.3,12.2,29.92,North,359,3.9,3.9,52,0.00,,---,0.00,VWS V14.01,2013-02-04 22:07:00,
2013-02-04 17:10:00,27.6,11.1,29.91,North,359,11.3,11.3,49,70.23,,---,0.00,VWS V14.01,2013-02-04 22:10:00,
2013-02-04 17:15:00,27.5,11.3,29.91,West,262,0.0,0.0,50,0.00,,---,0.00,VWS V14.01,2013-02-04 22:15:00,
2013-02-04 17:20:00,27.6,11.7,29.91,East,84,1.4,1.9,51,0.00,,---,0.00,VWS V14.01,2013-02-04 22:20:00,
2013-02-04 17:25:00,27.3,11.7,29.91,WNW,301,1.4,1.8,51,0.00,,---,0.00,VWS V14.01,2013-02-04 22:25:00,
2013-02-04 17:30:00,27.5,11.7,29.91,WNW,301,8.1,8.1,51,0.00,,---,0.00,VWS V14.01,2013-02-04 22:30:00,
2013-02-04 17:35:00,27.5,11.5,29.91,North,359,0.0,8.3,50,0.00,,---,0.00,VWS V14.01,2013-02-04 22:35:00,
2013-02-04 17:40:00,27.8,12.1,29.91,North,359,0.0,0.0,51,0.00,,---,0.00,VWS V14.01,2013-02-04 22:40:00,
2013-02-04 17:45:00,27.1,11.6,29.91,North,359,1.6,8.8,52,0.00,,---,0.00,VWS V14.01,2013-02-04 22:45:00,
2013-02-04 17:50:00,27.7,12.3,29.91,NNE,13,5.3,5.5,52,0.00,,---,0.00,VWS V14.01,2013-02-04 22:50:00,
2013-02-04 17:55:00,27.2,12.0,29.92,North,359,8.6,8.6,52,0.00,,---,0.00,VWS V14.01,2013-02-04 22:55:00,
2013-02-04 18:00:00,27.5,12.1,29.92,North,359,0.0,0.0,52,0.00,,---,0.00,VWS V14.01,2013-02-04 23:00:00,
2013-02-04 18:05:00,27.4,12.0,29.92,North,359,0.0,0.0,52,0.00,,---,0.00,VWS V14.01,2013-02-04 23:05:00,
2013-02-04 18:10:00,27.6,12.2,29.92,North,359,0.0,0.0,52,0.00,,---,0.00,VWS V14.01,2013-02-04 23:10:00,
2013-02-04 18:15:00,27.4,12.1,29.92,North,359,0.0,0.0,52,0.00,,---,0.00,VWS V14.01,2013-02-04 23:15:00,
2013-02-04 18:20:00,27.7,12.4,29.92,NW,309,1.4,2.0,52,0.00,,---,0.00,VWS V14.01,2013-02-04 23:20:00,
2013-02-04 18:25:00,26.5,11.4,29.92,North,359,2.9,2.9,52,0.00,,---,0.00,VWS V14.01,2013-02-04 23:25:00,
2013-02-04 18:30:00,27.5,12.5,29.93,NE,39,3.0,3.0,53,0.00,,---,0.00,VWS V14.01,2013-02-04 23:30:00,
2013-02-04 18:35:00,27.0,12.2,29.93,North,359,4.6,5.1,53,0.00,,---,0.00,VWS V14.01,2013-02-04 23:35:00,
2013-02-04 18:40:00,26.7,12.0,29.93,North,359,1.8,5.0,53,36.43,,---,0.00,VWS V14.01,2013-02-04 23:40:00,
2013-02-04 18:45:00,26.8,12.4,29.93,North,359,3.6,3.6,54,0.00,,---,0.00,VWS V14.01,2013-02-04 23:45:00,
2013-02-04 18:50:00,27.1,12.8,29.94,North,359,0.0,0.0,54,0.00,,---,0.00,VWS V14.01,2013-02-04 23:50:00,
2013-02-04 18:55:00,26.6,12.4,29.93,North,359,0.0,0.0,54,0.00,,---,0.00,VWS V14.01,2013-02-04 23:55:00,
2013-02-04 19:00:00,26.5,12.4,29.93,North,359,0.0,0.0,55,0.00,,---,0.00,VWS V14.01,2013-02-05 00:00:00,
2013-02-04 19:05:00,26.5,12.3,29.93,North,359,0.0,0.6,54,0.00,,---,0.00,VWS V14.01,2013-02-05 00:05:00,
2013-02-04 19:10:00,26.1,11.9,29.93,North,7,0.0,0.0,54,0.00,,---,0.00,VWS V14.01,2013-02-05 00:10:00,
2013-02-04 19:15:00,26.7,12.4,29.93,North,357,0.4,0.4,54,0.00,,---,0.00,VWS V14.01,2013-02-05 00:15:00,
2013-02-04 19:20:00,26.7,12.6,29.93,SE,138,0.0,0.0,55,0.00,,---,0.00,VWS V14.01,2013-02-05 00:20:00,
2013-02-04 19:25:00,26.6,12.6,29.93,SE,138,0.0,0.0,55,0.00,,---,0.00,VWS V14.01,2013-02-05 00:25:00,
2013-02-04 19:30:00,26.5,12.7,29.93,SE,138,0.0,0.0,55,0.00,,---,0.00,VWS V14.01,2013-02-05 00:30:00,
2013-02-04 19:35:00,26.0,12.4,29.93,WNW,285,2.5,2.7,56,0.00,,---,0.00,VWS V14.01,2013-02-05 00:35:00,
2013-02-04 19:40:00,26.0,12.4,29.93,WSW,252,1.1,1.8,56,40.95,,---,0.00,VWS V14.01,2013-02-05 00:40:00,
2013-02-04 19:45:00,26.1,12.6,29.93,WNW,295,0.0,2.7,56,0.00,,---,0.00,VWS V14.01,2013-02-05 00:45:00,
2013-02-04 19:50:00,26.2,12.8,29.94,North,3,0.0,0.0,56,0.00,,---,0.00,VWS V14.01,2013-02-05 00:50:00,
2013-02-04 19:55:00,25.6,12.3,29.93,WNW,300,1.9,3.0,56,0.00,,---,0.00,VWS V14.01,2013-02-05 00:55:00,
2013-02-04 20:00:00,25.4,12.4,29.93,North,359,0.0,4.6,57,0.00,,---,0.00,VWS V14.01,2013-02-05 01:00:00,
2013-02-04 20:05:00,26.2,13.1,29.93,North,359,0.0,0.0,57,0.00,,---,0.00,VWS V14.01,2013-02-05 01:05:00,
2013-02-04 20:10:00,25.6,12.6,29.93,North,359,0.0,0.0,57,0.00,,---,0.00,VWS V14.01,2013-02-05 01:10:00,
2013-02-04 20:15:00,25.3,12.3,29.93,North,359,0.0,0.0,57,0.00,,---,0.00,VWS V14.01,2013-02-05 01:15:00,
2013-02-04 20:20:00,25.5,12.8,29.93,North,359,0.0,0.0,58,0.00,,---,0.00,VWS V14.01,2013-02-05 01:20:00,
2013-02-04 20:25:00,24.9,12.5,29.93,North,359,0.0,0.0,59,0.00,,---,0.00,VWS V14.01,2013-02-05 01:25:00,
2013-02-04 20:30:00,25.2,10.4,29.93,SSW,211,2.2,2.4,53,0.00,,---,0.00,VWS V14.01,2013-02-05 01:30:00,
2013-02-04 20:35:00,24.7,12.5,29.92,SSW,211,0.0,0.0,59,0.00,,---,0.00,VWS V14.01,2013-02-05 01:35:00,
2013-02-04 20:40:00,25.0,13.0,29.93,SSW,211,0.0,0.0,60,0.00,,---,0.00,VWS V14.01,2013-02-05 01:40:00,
2013-02-04 20:45:00,24.7,12.7,29.93,SSW,211,0.0,0.0,60,0.00,,---,0.00,VWS V14.01,2013-02-05 01:45:00,
2013-02-04 20:50:00,25.0,12.9,29.93,SSW,211,0.0,0.0,60,0.00,,---,0.00,VWS V14.01,2013-02-05 01:50:00,
2013-02-04 20:55:00,24.9,12.9,29.93,SSW,211,0.0,0.0,60,0.00,,---,0.00,VWS V14.01,2013-02-05 01:55:00,
2013-02-04 21:00:00,24.7,12.8,29.93,North,359,0.0,0.0,60,0.00,,---,0.00,VWS V14.01,2013-02-05 02:00:00,
2013-02-04 21:05:00,25.0,13.2,29.93,North,359,0.0,0.0,60,0.00,,---,0.00,VWS V14.01,2013-02-05 02:05:00,
2013-02-04 21:10:00,24.8,13.2,29.93,North,359,0.0,0.0,61,0.00,,---,0.00,VWS V14.01,2013-02-05 02:10:00,
2013-02-04 21:15:00,24.9,13.3,29.93,North,359,0.0,0.0,61,0.00,,---,0.00,VWS V14.01,2013-02-05 02:15:00,
2013-02-04 21:20:00,25.0,13.4,29.93,North,359,0.0,0.0,61,0.00,,---,0.00,VWS V14.01,2013-02-05 02:20:00,
2013-02-04 21:25:00,24.9,13.7,29.93,North,359,0.0,0.0,62,0.00,,---,0.00,VWS V14.01,2013-02-05 02:25:00,
2013-02-04 21:30:00,25.0,13.8,29.93,North,359,0.0,0.0,62,0.00,,---,0.00,VWS V14.01,2013-02-05 02:30:00,
2013-02-04 21:35:00,25.0,13.9,29.92,North,359,0.0,0.0,62,0.00,,---,0.00,VWS V14.01,2013-02-05 02:35:00,
2013-02-04 21:40:00,24.7,13.7,29.93,North,359,0.0,2.9,62,0.00,,---,0.00,VWS V14.01,2013-02-05 02:40:00,
2013-02-04 21:45:00,24.7,13.7,29.93,North,359,0.0,0.0,62,0.00,,---,0.00,VWS V14.01,2013-02-05 02:45:00,
2013-02-04 21:50:00,25.8,14.7,29.93,North,359,0.0,0.0,62,0.00,,---,0.00,VWS V14.01,2013-02-05 02:50:00,
2013-02-04 21:55:00,26.1,15.1,29.93,North,359,0.0,0.0,62,0.00,,---,0.00,VWS V14.01,2013-02-05 02:55:00,
2013-02-04 22:00:00,25.4,14.4,29.93,NNW,335,0.0,0.0,62,0.00,,---,0.00,VWS V14.01,2013-02-05 03:00:00,
2013-02-04 22:05:00,25.1,14.0,29.93,NW,311,0.0,0.0,62,0.00,,---,0.00,VWS V14.01,2013-02-05 03:05:00,
2013-02-04 22:10:00,25.8,14.6,29.93,WSW,245,1.6,2.0,62,0.00,,---,0.00,VWS V14.01,2013-02-05 03:10:00,
2013-02-04 22:15:00,25.6,14.4,29.93,WNW,295,0.4,1.2,62,0.00,,---,0.00,VWS V14.01,2013-02-05 03:15:00,
2013-02-04 22:20:00,25.0,13.9,29.93,North,359,0.0,0.0,62,0.00,,---,0.00,VWS V14.01,2013-02-05 03:20:00,
2013-02-04 22:25:00,25.9,14.8,29.93,West,278,1.2,1.6,62,0.00,,---,0.00,VWS V14.01,2013-02-05 03:25:00,
2013-02-04 22:30:00,26.2,15.1,29.92,West,262,0.0,0.0,62,0.00,,---,0.00,VWS V14.01,2013-02-05 03:30:00,
2013-02-04 22:35:00,25.4,14.5,29.92,WSW,250,2.2,2.2,63,0.00,,---,0.00,VWS V14.01,2013-02-05 03:35:00,
2013-02-04 22:40:00,26.1,15.2,29.92,West,274,0.0,0.0,63,0.00,,---,0.00,VWS V14.01,2013-02-05 03:40:00,
2013-02-04 22:45:00,25.6,14.8,29.93,North,359,0.0,2.5,63,0.00,,---,0.00,VWS V14.01,2013-02-05 03:45:00,
2013-02-04 22:50:00,25.7,15.3,29.93,WNW,291,4.3,4.3,64,0.00,,---,0.00,VWS V14.01,2013-02-05 03:50:00,
2013-02-04 22:55:00,26.1,16.8,29.93,NNW,333,1.2,4.0,67,0.00,,---,0.00,VWS V14.01,2013-02-05 03:55:00,
2013-02-04 23:00:00,26.2,17.5,29.93,NW,319,4.7,5.9,69,0.00,,---,0.00,VWS V14.01,2013-02-05 04:00:00,
2013-02-04 23:05:00,26.0,18.3,29.93,North,359,0.0,1.5,72,0.00,,---,0.00,VWS V14.01,2013-02-05 04:05:00,
2013-02-04 23:10:00,26.5,19.7,29.93,North,359,0.0,0.0,75,0.00,,---,0.00,VWS V14.01,2013-02-05 04:10:00,
2013-02-04 23:15:00,26.4,20.0,29.92,North,359,0.0,0.0,76,0.00,,---,0.00,VWS V14.01,2013-02-05 04:15:00,
2013-02-04 23:20:00,26.1,20.0,29.92,North,359,0.0,0.0,77,0.00,,---,0.00,VWS V14.01,2013-02-05 04:20:00,
2013-02-04 23:25:00,26.4,20.1,29.91,North,359,0.0,0.0,77,0.00,,---,0.00,VWS V14.01,2013-02-05 04:25:00,
2013-02-04 23:30:00,26.4,20.4,29.91,NNW,328,1.1,1.8,78,0.00,,---,0.00,VWS V14.01,2013-02-05 04:30:00,
2013-02-04 23:35:00,25.8,20.0,29.92,NNW,328,0.0,0.0,78,0.00,,---,0.00,VWS V14.01,2013-02-05 04:35:00,
2013-02-04 23:40:00,25.5,20.6,29.92,NW,304,0.0,0.0,81,0.00,,---,0.00,VWS V14.01,2013-02-05 04:40:00,
2013-02-04 23:45:00,25.9,20.7,29.92,NW,304,0.0,0.0,80,0.00,,---,0.00,VWS V14.01,2013-02-05 04:45:00,
2013-02-04 23:50:00,26.0,21.4,29.92,NW,304,0.0,0.0,82,0.00,,---,0.00,VWS V14.01,2013-02-05 04:50:00,
2013-02-04 23:55:00,25.9,21.7,29.92,NW,304,0.0,0.0,84,0.00,,---,0.00,VWS V14.01,2013-02-05 04:55:00,